Time;durP1;ratioP1;P1;durP2;ratioP2;P2;SDS_P1;SDS_P2;PMS_P1;PMS_P2;Temp;Humidity;BMP_temperature;BMP_pressure;BME280_temperature;BME280_humidity;BME280_pressure;Samples;Min_cycle;Max_cycle;Signal;HPM_P1;HPM_P2
2023/08/16 00:00:54;;;;;;;2.90;1.58;;;;;;;15.83;80.38;100546.06;5022564;28;20444;-74
2023/08/16 00:03:19;;;;;;;4.03;1.73;;;;;;;15.74;81.37;100544.59;5023914;28;20058;-74
2023/08/16 00:05:45;;;;;;;5.68;1.60;;;;;;;15.70;81.83;100542.94;5024074;28;20028;-73
2023/08/16 00:08:11;;;;;;;4.85;1.67;;;;;;;15.67;82.21;100529.94;5024021;28;20056;-74
2023/08/16 00:10:37;;;;;;;2.63;1.60;;;;;;;15.59;82.55;100538.00;5024078;28;20053;-74
2023/08/16 00:13:03;;;;;;;2.65;1.50;;;;;;;15.55;83.02;100531.16;5022535;28;20053;-74
2023/08/16 00:15:28;;;;;;;7.95;1.67;;;;;;;15.58;83.34;100533.69;5023866;28;20030;-72
2023/08/16 00:17:54;;;;;;;9.18;2.35;;;;;;;15.57;83.06;100531.97;5023610;28;20029;-74
2023/08/16 00:20:20;;;;;;;3.63;2.03;;;;;;;15.48;82.76;100521.72;5023793;28;20049;-74
2023/08/16 00:22:46;;;;;;;5.40;1.70;;;;;;;15.59;82.36;100538.00;5023762;28;20036;-74
2023/08/16 00:25:11;;;;;;;3.05;1.60;;;;;;;15.56;82.39;100535.47;5023683;28;20030;-74
2023/08/16 00:27:37;;;;;;;6.93;2.05;;;;;;;15.52;82.13;100528.63;5023432;28;20026;-73
2023/08/16 00:30:04;;;;;;;3.78;2.10;;;;;;;15.46;82.02;100527.00;5023917;28;20098;-74
2023/08/16 00:32:29;;;;;;;5.53;1.85;;;;;;;15.45;82.19;100537.50;5023634;28;20021;-73
2023/08/16 00:34:55;;;;;;;5.90;2.17;;;;;;;15.42;82.34;100535.84;5023543;28;20113;-73
2023/08/16 00:37:20;;;;;;;2.25;1.55;;;;;;;15.41;82.31;100536.75;5023768;28;20034;-76
2023/08/16 00:39:46;;;;;;;4.03;1.88;;;;;;;15.42;82.54;100542.81;5023589;28;20235;-74
2023/08/16 00:42:11;;;;;;;3.08;1.73;;;;;;;15.33;82.42;100523.03;5023651;28;20033;-73
2023/08/16 00:44:36;;;;;;;7.53;2.35;;;;;;;15.38;82.49;100536.84;5023422;28;20106;-74
2023/08/16 00:47:02;;;;;;;3.03;1.67;;;;;;;15.38;82.75;100541.22;5021989;28;20026;-74
2023/08/16 00:49:28;;;;;;;6.50;1.55;;;;;;;15.33;82.66;100544.81;5021989;28;20018;-73
2023/08/16 00:51:54;;;;;;;3.28;1.85;;;;;;;15.31;82.88;100541.38;5023371;28;20435;-75
2023/08/16 00:54:20;;;;;;;2.95;1.50;;;;;;;15.29;83.25;100550.16;5023726;28;20044;-75
2023/08/16 00:56:46;;;;;;;6.55;2.30;;;;;;;15.25;83.25;100549.38;5023758;28;20025;-75
2023/08/16 00:59:12;;;;;;;5.13;2.33;;;;;;;15.27;83.06;100552.78;5022462;28;20014;-75
2023/08/16 01:01:38;;;;;;;3.50;1.85;;;;;;;15.23;83.12;100559.00;5023626;28;20022;-76
2023/08/16 01:04:04;;;;;;;1.58;1.33;;;;;;;15.22;83.27;100546.84;5025588;28;20018;-76
2023/08/16 01:06:30;;;;;;;2.33;1.60;;;;;;;15.26;82.96;100558.06;5026857;28;20021;-76
2023/08/16 01:08:56;;;;;;;5.70;2.13;;;;;;;15.23;82.97;100556.41;5026726;28;20037;-76
2023/08/16 01:11:27;;;;;;;4.93;1.58;;;;;;;15.21;83.07;100558.19;5027350;28;20037;-75
2023/08/16 01:14:05;;;;;;;;;;;;;;;15.26;83.18;100560.69;5027356;28;20025;-75
2023/08/16 01:16:34;;;;;;;7.07;2.55;;;;;;;15.22;83.18;100568.59;5026666;28;19909;-75
2023/08/16 01:19:00;;;;;;;1.70;1.40;;;;;;;15.26;83.42;100564.16;5041903;28;20022;-75
2023/08/16 01:21:27;;;;;;;7.55;1.77;;;;;;;15.24;83.55;100550.25;5027125;28;20076;-75
2023/08/16 01:24:25;;;;;;;2.20;1.52;;;;;;;15.40;83.43;100576.03;5026543;28;20038;-74
2023/08/16 01:26:53;;;;;;;3.15;1.60;;;;;;;15.41;83.33;100562.06;5010532;28;20060;-74
2023/08/16 01:29:20;;;;;;;2.90;1.88;;;;;;;15.47;83.35;100556.66;5041712;28;20070;-73
2023/08/16 01:31:45;;;;;;;5.40;1.95;;;;;;;15.49;83.53;100563.56;5025376;28;20029;-74
2023/08/16 01:34:11;;;;;;;5.78;1.58;;;;;;;15.52;83.64;100565.25;5026449;28;20022;-73
2023/08/16 01:36:36;;;;;;;4.15;1.13;;;;;;;15.52;83.49;100565.25;5041676;28;20029;-74
2023/08/16 01:39:03;;;;;;;5.68;1.90;;;;;;;15.57;83.53;100562.50;5026206;28;20580;-74
2023/08/16 01:41:35;;;;;;;3.17;1.55;;;;;;;15.54;83.89;100568.69;5026425;28;20026;-73
2023/08/16 01:44:01;;;;;;;3.25;1.38;;;;;;;15.57;83.45;100566.00;5026205;28;20137;-74
2023/08/16 01:46:28;;;;;;;1.95;1.45;;;;;;;15.61;83.80;100569.34;5026425;28;20032;-74
2023/08/16 01:48:55;;;;;;;1.88;1.02;;;;;;;15.65;83.83;100560.53;5026253;28;20032;-73
2023/08/16 01:51:21;;;;;;;4.63;1.95;;;;;;;15.70;83.98;100566.50;5026323;28;20030;-75
2023/08/16 01:53:53;;;;;;;2.72;1.67;;;;;;;15.76;83.69;100568.09;5026385;28;20427;-75
2023/08/16 01:56:19;;;;;;;1.55;1.20;;;;;;;15.79;83.96;100568.00;5024930;28;20040;-74
2023/08/16 01:58:45;;;;;;;2.78;1.38;;;;;;;15.84;83.79;100566.13;5026116;28;20044;-74
2023/08/16 02:01:11;;;;;;;4.47;1.73;;;;;;;15.90;83.45;100569.47;5026164;28;20022;-74
2023/08/16 02:03:36;;;;;;;4.25;1.67;;;;;;;15.88;84.14;100568.66;5024792;28;20026;-75
2023/08/16 02:06:02;;;;;;;3.95;1.27;;;;;;;15.91;84.06;100574.66;5025979;28;20478;-75
2023/08/16 02:08:27;;;;;;;3.25;1.65;;;;;;;15.95;84.51;100576.28;5025824;28;20072;-74
2023/08/16 02:10:53;;;;;;;6.68;1.75;;;;;;;16.00;84.25;100570.97;5025877;28;20036;-74
2023/08/16 02:13:18;;;;;;;2.95;1.60;;;;;;;16.05;84.25;100569.06;5025305;28;20284;-74
2023/08/16 02:15:44;;;;;;;1.65;1.55;;;;;;;16.10;83.85;100575.00;5040856;28;20056;-75
2023/08/16 02:18:10;;;;;;;3.42;1.40;;;;;;;16.10;84.20;100580.25;5025553;28;20014;-73
2023/08/16 02:20:42;;;;;;;6.32;1.80;;;;;;;16.12;83.96;100579.38;5024087;28;20021;-74
2023/08/16 02:23:08;;;;;;;1.25;1.05;;;;;;;16.17;84.12;100577.44;5025521;28;20041;-74
2023/08/16 02:25:34;;;;;;;4.38;1.92;;;;;;;16.20;84.14;100577.38;5025549;28;20029;-74
2023/08/16 02:28:00;;;;;;;4.05;1.63;;;;;;;16.21;84.31;100579.94;5025383;28;20022;-74
2023/08/16 02:30:26;;;;;;;1.50;1.20;;;;;;;16.19;84.12;100579.16;5025530;28;20036;-74
2023/08/16 02:32:53;;;;;;;3.05;1.85;;;;;;;16.21;84.03;100579.09;5025210;28;20514;-73
2023/08/16 02:35:19;;;;;;;2.70;1.92;;;;;;;16.23;84.03;100572.91;5025436;28;20022;-73
2023/08/16 02:37:44;;;;;;;5.93;1.42;;;;;;;16.23;84.08;100572.91;5023939;28;20029;-72
2023/08/16 02:40:10;;;;;;;1.30;1.20;;;;;;;16.29;83.92;100577.13;5025575;28;20021;-73
2023/08/16 02:42:35;;;;;;;1.00;0.90;;;;;;;16.32;83.94;100576.16;5025327;28;20116;-74
2023/08/16 02:45:01;;;;;;;5.13;1.33;;;;;;;16.33;84.04;100573.50;5025155;28;20073;-73
2023/08/16 02:47:27;;;;;;;4.78;1.13;;;;;;;16.41;83.43;100575.00;5024692;28;20108;-74
2023/08/16 02:49:52;;;;;;;2.60;1.30;;;;;;;16.38;83.80;100569.88;5025246;28;20030;-73
2023/08/16 02:52:18;;;;;;;1.73;1.25;;;;;;;16.43;83.44;100573.22;5025092;28;20018;-74
2023/08/16 02:54:43;;;;;;;5.60;1.70;;;;;;;16.41;83.51;100572.38;5040933;28;20029;-73
2023/08/16 02:57:09;;;;;;;3.17;1.58;;;;;;;16.40;83.81;100574.16;5023951;28;20053;-73
2023/08/16 02:59:42;;;;;;;4.38;1.27;;;;;;;16.40;83.72;100573.31;5040403;28;20018;-74
2023/08/16 03:02:08;;;;;;;3.42;1.75;;;;;;;16.38;83.97;100567.25;5024868;28;20022;-74
2023/08/16 03:04:38;;;;;;;1.60;1.17;;;;;;;16.41;83.61;100569.78;5024910;28;20026;-74
2023/08/16 03:07:07;;;;;;;4.82;1.58;;;;;;;16.47;83.63;100580.94;5025062;28;20036;-74
2023/08/16 03:09:33;;;;;;;1.60;1.08;;;;;;;16.47;83.55;100577.44;5023496;28;20022;-74
2023/08/16 03:11:58;;;;;;;1.80;1.08;;;;;;;16.44;83.39;100575.78;5024843;28;20435;-74
2023/08/16 03:14:24;;;;;;;1.45;1.23;;;;;;;16.48;83.56;100571.31;5024793;28;20077;-75
2023/08/16 03:16:49;;;;;;;1.50;1.05;;;;;;;16.50;83.61;100572.13;5023293;28;20632;-74
2023/08/16 03:19:15;;;;;;;1.20;1.00;;;;;;;16.48;83.23;100573.94;5023238;28;20018;-75
2023/08/16 03:21:40;;;;;;;5.97;1.20;;;;;;;16.50;83.48;100573.88;5024798;28;20022;-75
2023/08/16 03:24:06;;;;;;;2.58;1.02;;;;;;;16.51;83.27;100578.22;5022506;28;20088;-75
2023/08/16 03:26:32;;;;;;;6.40;1.38;;;;;;;16.52;83.46;100572.94;5039715;28;20022;-74
2023/08/16 03:28:57;;;;;;;3.75;1.58;;;;;;;16.50;83.02;100573.88;5024634;28;20072;-75
2023/08/16 03:31:23;;;;;;;2.00;0.80;;;;;;;16.45;83.22;100561.75;5024244;28;20028;-76
2023/08/16 03:33:48;;;;;;;2.08;1.17;;;;;;;16.44;83.09;100567.91;5023256;28;20496;-75
2023/08/16 03:36:14;;;;;;;3.60;1.15;;;;;;;16.47;83.03;100574.81;5024459;28;20482;-74
2023/08/16 03:38:41;;;;;;;2.80;1.83;;;;;;;16.43;83.01;100579.31;5024378;28;20121;-73
2023/08/16 03:41:07;;;;;;;3.28;1.45;;;;;;;16.41;83.26;100575.88;5024684;28;20105;-74
2023/08/16 03:43:36;;;;;;;6.18;1.70;;;;;;;16.40;83.32;100568.94;5024265;28;20053;-74
2023/08/16 03:46:03;;;;;;;1.08;0.82;;;;;;;16.32;83.09;100565.69;5024136;28;20033;-74
2023/08/16 03:48:28;;;;;;;0.65;0.65;;;;;;;16.39;83.02;100576.84;5022891;28;20022;-74
2023/08/16 03:50:54;;;;;;;1.70;0.93;;;;;;;16.39;83.23;100572.44;5039286;28;20029;-74
2023/08/16 03:53:19;;;;;;;8.48;1.30;;;;;;;16.42;82.98;100571.50;5024253;28;20073;-74
2023/08/16 03:55:44;;;;;;;1.00;0.90;;;;;;;16.39;83.38;100582.91;5022749;28;20026;-74
2023/08/16 03:58:10;;;;;;;2.60;1.45;;;;;;;16.44;83.00;100585.41;5024027;28;20022;-74
2023/08/16 04:00:35;;;;;;;2.35;1.38;;;;;;;16.34;83.24;100590.09;5039692;28;20014;-76
2023/08/16 04:03:02;;;;;;;1.27;1.17;;;;;;;16.22;84.14;100591.28;5038994;28;20025;-75
2023/08/16 04:05:28;;;;;;;3.58;1.40;;;;;;;15.98;85.45;100591.09;5022786;28;20025;-68
2023/08/16 04:07:53;;;;;;;3.85;1.05;;;;;;;15.78;86.62;100600.34;5023651;28;20491;-75
2023/08/16 04:10:19;;;;;;;2.00;1.25;;;;;;;15.63;86.92;100600.72;5022856;28;20049;-77
2023/08/16 04:12:44;;;;;;;4.13;1.10;;;;;;;15.53;88.46;100598.34;5022707;28;20036;-78
2023/08/16 04:15:10;;;;;;;0.98;0.88;;;;;;;15.45;89.40;100602.91;5024016;28;20022;-76
2023/08/16 04:17:36;;;;;;;2.58;0.75;;;;;;;15.42;89.43;100601.25;5023839;28;20055;-76
2023/08/16 04:20:03;;;;;;;1.10;0.80;;;;;;;15.36;89.79;100596.19;5024279;28;20106;-76
2023/08/16 04:22:29;;;;;;;2.30;1.15;;;;;;;15.43;89.93;100597.72;5022707;28;20033;-76
2023/08/16 04:24:54;;;;;;;1.70;0.80;;;;;;;15.45;90.86;100605.53;5022672;28;20022;-79
2023/08/16 04:27:19;;;;;;;4.18;1.42;;;;;;;15.46;91.22;100602.03;5023939;28;20022;-70
2023/08/16 04:29:45;;;;;;;3.08;1.55;;;;;;;15.48;91.81;100600.22;5022695;28;20057;-77
2023/08/16 04:32:11;;;;;;;12.40;1.92;;;;;;;15.51;91.61;100597.53;5023529;28;20033;-72
2023/08/16 04:34:36;;;;;;;3.08;1.50;;;;;;;15.56;91.43;100597.44;5023972;28;20021;-72
2023/08/16 04:37:01;;;;;;;2.08;0.82;;;;;;;15.59;91.66;100598.19;5028156;28;20033;-77
2023/08/16 04:39:27;;;;;;;1.52;0.82;;;;;;;15.66;91.67;100603.25;5025970;28;20022;-75
2023/08/16 04:41:52;;;;;;;2.75;1.30;;;;;;;15.72;92.00;100610.94;5027352;28;20735;-77
2023/08/16 04:44:17;;;;;;;1.67;1.05;;;;;;;15.76;92.13;100615.22;5025958;28;20073;-73
2023/08/16 04:46:43;;;;;;;4.68;0.98;;;;;;;15.82;91.88;100617.66;5028272;28;20097;-75
2023/08/16 04:49:08;;;;;;;2.35;0.70;;;;;;;15.79;92.48;100607.28;5027280;28;20026;-74
2023/08/16 04:51:34;;;;;;;2.20;1.25;;;;;;;15.80;92.42;100614.22;5027634;28;20029;-74
2023/08/16 04:53:59;;;;;;;11.07;1.13;;;;;;;15.82;92.35;100625.50;5027366;28;20022;-74
2023/08/16 04:56:24;;;;;;;6.65;1.48;;;;;;;15.81;92.14;100613.34;5027407;28;20386;-67
2023/08/16 04:58:50;;;;;;;1.20;1.10;;;;;;;15.82;92.39;100619.41;5027185;28;20022;-67
2023/08/16 05:01:18;;;;;;;4.50;1.35;;;;;;;15.79;92.46;100604.66;5026944;28;20026;-68
2023/08/16 05:03:50;;;;;;;2.72;1.25;;;;;;;15.82;92.31;100615.03;5025889;28;20034;-68
2023/08/16 05:06:16;;;;;;;2.15;1.45;;;;;;;15.91;92.01;100613.09;5025948;28;20363;-69
2023/08/16 05:08:41;;;;;;;2.15;1.05;;;;;;;15.92;92.02;100612.16;5026820;28;20268;-69
2023/08/16 05:11:07;;;;;;;1.92;1.20;;;;;;;15.95;92.38;100606.84;5027032;28;20052;-70
2023/08/16 05:13:32;;;;;;;3.70;1.17;;;;;;;16.02;92.65;100611.06;5042242;28;20123;-69
2023/08/16 05:15:57;;;;;;;4.22;1.40;;;;;;;16.11;92.55;100620.41;5025786;28;20112;-69
2023/08/16 05:18:23;;;;;;;5.25;1.73;;;;;;;16.14;92.03;100608.97;5025336;28;20049;-68
2023/08/16 05:20:48;;;;;;;3.80;1.30;;;;;;;16.14;91.76;100617.69;5026919;28;20508;-69
2023/08/16 05:23:14;;;;;;;2.15;1.30;;;;;;;16.17;91.78;100619.38;5027082;28;20022;-68
2023/08/16 05:25:39;;;;;;;3.25;1.48;;;;;;;16.20;91.29;100614.03;5027019;28;20025;-70
2023/08/16 05:28:05;;;;;;;14.48;1.50;;;;;;;16.21;91.36;100607.91;5026945;28;20426;-69
2023/08/16 05:30:30;;;;;;;9.85;1.73;;;;;;;16.22;91.14;100607.88;5027096;28;20018;-70
2023/08/16 05:32:56;;;;;;;4.65;0.95;;;;;;;16.24;90.80;100620.91;5026523;28;20482;-69
2023/08/16 05:35:22;;;;;;;1.73;1.02;;;;;;;16.22;90.96;100613.09;5026902;28;20030;-68
2023/08/16 05:37:48;;;;;;;4.85;1.83;;;;;;;16.20;90.70;100608.78;5026688;28;20033;-69
2023/08/16 05:40:14;;;;;;;3.78;1.30;;;;;;;16.23;90.89;100620.06;5026600;28;20034;-69
2023/08/16 05:42:39;;;;;;;2.30;1.25;;;;;;;16.16;91.10;100612.41;5026628;28;20057;-69
2023/08/16 05:45:08;;;;;;;0.75;0.70;;;;;;;16.18;91.06;100619.31;5026355;28;20046;-70
2023/08/16 05:47:34;;;;;;;2.72;1.20;;;;;;;16.15;91.12;100611.53;5025682;28;20470;-69
2023/08/16 05:50:00;;;;;;;5.45;1.60;;;;;;;16.10;91.16;100611.69;5026576;28;20056;-69
2023/08/16 05:52:26;;;;;;;3.67;1.30;;;;;;;16.04;91.58;100613.63;5041721;28;20374;-71
2023/08/16 05:54:51;;;;;;;1.10;0.80;;;;;;;15.98;91.56;100610.28;5026535;28;20471;-71
2023/08/16 05:57:17;;;;;;;4.07;1.00;;;;;;;15.95;91.77;100618.19;5026157;28;20018;-68
2023/08/16 05:59:43;;;;;;;10.73;1.63;;;;;;;15.97;92.20;100615.53;5026480;28;20021;-69
2023/08/16 06:02:08;;;;;;;1.52;0.90;;;;;;;15.97;92.90;100628.63;5025854;28;20541;-69
2023/08/16 06:04:34;;;;;;;5.85;2.28;;;;;;;15.94;93.17;100624.31;5026175;28;20026;-70
2023/08/16 06:07:00;;;;;;;9.38;2.15;;;;;;;15.97;93.47;100621.63;5025917;28;20030;-69
2023/08/16 06:09:25;;;;;;;3.10;1.58;;;;;;;16.02;93.80;100616.31;5026096;28;20113;-70
2023/08/16 06:11:51;;;;;;;2.45;1.83;;;;;;;16.00;93.39;100628.56;5026218;28;20033;-67
2023/08/16 06:14:16;;;;;;;2.35;1.13;;;;;;;15.95;93.81;100625.19;5025961;28;20048;-69
2023/08/16 06:16:41;;;;;;;7.45;1.67;;;;;;;15.85;94.08;100607.09;5025890;28;20033;-69
2023/08/16 06:19:08;;;;;;;2.67;1.27;;;;;;;15.94;94.83;100626.09;5025913;28;20021;-70
2023/08/16 06:21:34;;;;;;;4.78;1.40;;;;;;;16.04;94.90;100630.19;5024729;28;20029;-70
2023/08/16 06:23:59;;;;;;;3.28;1.40;;;;;;;16.13;95.38;100636.06;5024412;28;20042;-70
2023/08/16 06:26:25;;;;;;;11.05;1.10;;;;;;;16.19;95.33;100634.16;5025869;28;20038;-70
2023/08/16 06:28:51;;;;;;;3.10;1.17;;;;;;;16.23;95.09;100624.41;5025640;28;20038;-70
2023/08/16 06:31:17;;;;;;;9.20;1.77;;;;;;;16.31;94.87;100638.16;5024006;28;20026;-70
2023/08/16 06:33:43;;;;;;;3.30;1.67;;;;;;;16.29;94.94;100628.63;5025785;28;20032;-71
2023/08/16 06:36:09;;;;;;;13.95;1.73;;;;;;;16.30;93.86;100628.59;5025619;28;20030;-70
2023/08/16 06:38:34;;;;;;;5.88;1.58;;;;;;;16.23;93.69;100629.66;5024316;28;20045;-70
2023/08/16 06:41:00;;;;;;;3.45;1.30;;;;;;;16.20;94.09;100629.75;5025548;28;20026;-70
2023/08/16 06:43:25;;;;;;;1.88;1.38;;;;;;;16.20;93.93;100625.38;5023746;28;20117;-70
2023/08/16 06:45:50;;;;;;;2.05;1.25;;;;;;;16.29;93.48;100636.50;5025664;28;20029;-70
2023/08/16 06:48:16;;;;;;;1.92;1.08;;;;;;;16.22;93.78;100638.44;5025111;28;20076;-69
2023/08/16 06:50:41;;;;;;;10.82;0.98;;;;;;;16.19;93.91;100639.38;5024284;28;20418;-69
2023/08/16 06:53:07;;;;;;;4.93;1.40;;;;;;;16.20;94.17;100642.84;5025321;28;20073;-69
2023/08/16 06:55:34;;;;;;;1.20;1.10;;;;;;;16.28;93.96;100642.66;5025525;28;20025;-70
2023/08/16 06:58:01;;;;;;;2.17;1.02;;;;;;;16.32;93.83;100646.91;5024897;28;20026;-70
2023/08/16 07:00:26;;;;;;;2.88;1.30;;;;;;;16.29;93.70;100658.34;5024841;28;20022;-70
2023/08/16 07:02:52;;;;;;;2.50;0.77;;;;;;;16.22;93.73;100660.25;5025179;28;20033;-71
2023/08/16 07:05:17;;;;;;;0.68;0.50;;;;;;;16.09;93.73;100649.25;5025465;28;20028;-70
2023/08/16 07:07:42;;;;;;;1.98;0.80;;;;;;;15.95;93.82;100647.00;5025037;28;20038;-70
2023/08/16 07:10:09;;;;;;;4.28;1.13;;;;;;;15.91;94.72;100657.59;5025070;28;20120;-69
2023/08/16 07:12:34;;;;;;;5.38;1.42;;;;;;;15.94;95.08;100662.75;5025165;28;20030;-70
2023/08/16 07:15:00;;;;;;;4.32;1.52;;;;;;;15.98;95.52;100654.78;5025117;28;20037;-69
2023/08/16 07:17:25;;;;;;;2.75;1.05;;;;;;;15.99;95.67;100658.25;5040203;28;20053;-70
2023/08/16 07:19:52;;;;;;;4.85;0.90;;;;;;;16.04;96.09;100661.63;5023662;28;20478;-70
2023/08/16 07:22:20;;;;;;;2.88;1.13;;;;;;;16.17;95.79;100662.13;5023594;28;20022;-69
2023/08/16 07:24:45;;;;;;;1.88;0.85;;;;;;;16.27;96.58;100667.13;5023757;28;20018;-69
2023/08/16 07:27:11;;;;;;;10.52;1.40;;;;;;;16.46;96.40;100672.69;5024872;28;20022;-69
2023/08/16 07:29:36;;;;;;;6.45;1.25;;;;;;;16.69;96.17;100671.16;5024766;28;20022;-68
2023/08/16 07:32:01;;;;;;;2.15;1.65;;;;;;;16.84;94.99;100668.06;5024705;28;20025;-70
2023/08/16 07:34:27;;;;;;;1.58;1.00;;;;;;;16.94;93.45;100659.91;5023576;28;20029;-69
2023/08/16 07:36:52;;;;;;;3.20;1.17;;;;;;;16.96;93.04;100661.56;5024638;28;20045;-69
2023/08/16 07:39:18;;;;;;;1.45;0.90;;;;;;;17.07;92.27;100666.50;5024492;28;20022;-68
2023/08/16 07:41:43;;;;;;;3.45;2.40;;;;;;;17.29;92.68;100668.47;5024688;28;20076;-69
2023/08/16 07:44:09;;;;;;;3.15;1.13;;;;;;;17.49;91.25;100669.59;5023044;28;20053;-69
2023/08/16 07:46:34;;;;;;;4.90;1.65;;;;;;;17.51;89.47;100673.00;5024348;28;20021;-69
2023/08/16 07:48:59;;;;;;;5.22;1.27;;;;;;;17.50;88.43;100666.03;5024319;28;20026;-69
2023/08/16 07:51:25;;;;;;;2.88;1.02;;;;;;;17.52;87.94;100674.75;5024635;28;20572;-69
2023/08/16 07:53:50;;;;;;;2.38;1.10;;;;;;;17.47;87.25;100671.41;5024661;28;20033;-70
2023/08/16 07:56:16;;;;;;;8.75;1.35;;;;;;;17.45;87.53;100678.47;5024581;28;20056;-69
2023/08/16 07:58:41;;;;;;;3.72;1.10;;;;;;;17.53;87.63;100681.69;5024432;28;20026;-69
2023/08/16 08:01:07;;;;;;;4.15;1.35;;;;;;;17.57;87.00;100680.66;5024363;28;20053;-69
2023/08/16 08:03:33;;;;;;;2.00;1.25;;;;;;;17.74;87.31;100681.88;5022964;28;20057;-69
2023/08/16 08:06:02;;;;;;;1.23;0.50;;;;;;;17.92;86.50;100676.91;5024383;28;20537;-68
2023/08/16 08:08:28;;;;;;;0.95;0.95;;;;;;;18.19;85.28;100680.34;5024118;28;20105;-68
2023/08/16 08:10:53;;;;;;;8.63;2.35;;;;;;;18.93;85.84;100675.00;5026654;28;20076;-68
2023/08/16 08:13:18;;;;;;;6.68;1.23;;;;;;;19.36;82.67;100682.13;5028407;28;20026;-70
2023/08/16 08:15:44;;;;;;;6.10;1.20;;;;;;;19.25;79.11;100686.03;5028480;28;20022;-69
2023/08/16 08:18:09;;;;;;;6.57;1.02;;;;;;;19.16;78.93;100678.50;5027922;28;20117;-68
2023/08/16 08:20:36;;;;;;;2.25;1.08;;;;;;;19.16;77.97;100691.66;5026668;28;20575;-70
2023/08/16 08:23:02;;;;;;;0.65;0.65;;;;;;;19.03;76.86;100692.13;5028164;28;20045;-67
2023/08/16 08:25:28;;;;;;;1.77;1.10;;;;;;;18.93;76.94;100691.63;5028148;28;20061;-68
2023/08/16 08:27:53;;;;;;;1.63;0.68;;;;;;;19.25;78.61;100693.09;5027934;28;20033;-68
2023/08/16 08:30:19;;;;;;;2.67;0.90;;;;;;;19.41;75.64;100680.16;5027829;28;20022;-69
2023/08/16 08:32:44;;;;;;;2.30;1.38;;;;;;;19.17;74.83;100693.41;5027680;28;20114;-68
2023/08/16 08:35:10;;;;;;;1.60;0.55;;;;;;;18.97;75.82;100686.25;5028026;28;20096;-67
2023/08/16 08:37:35;;;;;;;3.28;0.77;;;;;;;18.79;75.72;100689.53;5027922;28;20028;-69
2023/08/16 08:40:01;;;;;;;1.67;0.63;;;;;;;18.68;76.46;100700.47;5027736;28;20105;-67
2023/08/16 08:42:27;;;;;;;1.20;0.80;;;;;;;18.67;76.53;100692.66;5027654;28;20029;-68
2023/08/16 08:44:53;;;;;;;8.70;1.27;;;;;;;18.69;76.29;100720.59;5027579;28;20069;-68
2023/08/16 08:47:19;;;;;;;0.55;0.43;;;;;;;18.60;76.36;100718.31;5027663;28;20021;-69
2023/08/16 08:49:44;;;;;;;1.45;0.80;;;;;;;18.40;76.89;100711.16;5026169;28;20029;-69
2023/08/16 08:52:11;;;;;;;1.33;0.70;;;;;;;18.32;77.32;100707.03;5027653;28;20025;-68
2023/08/16 08:54:37;;;;;;;2.90;0.80;;;;;;;18.31;77.76;100717.59;5027451;28;20045;-69
2023/08/16 08:57:05;;;;;;;6.32;0.75;;;;;;;18.31;78.19;100717.59;5027598;28;20030;-69
2023/08/16 08:59:34;;;;;;;2.83;1.30;;;;;;;18.30;77.98;100724.63;5027431;28;20128;-69
2023/08/16 09:02:01;;;;;;;0.98;0.55;;;;;;;18.24;77.74;100724.88;5027501;28;20036;-69
2023/08/16 09:04:29;;;;;;;2.15;0.98;;;;;;;18.25;78.18;100726.56;5027393;28;20045;-67
2023/08/16 09:06:56;;;;;;;4.85;0.73;;;;;;;18.34;78.16;100725.38;5027462;28;20180;-68
2023/08/16 09:09:22;;;;;;;1.63;1.05;;;;;;;18.43;78.19;100726.81;5027194;28;20037;-69
2023/08/16 09:11:48;;;;;;;0.90;0.65;;;;;;;18.52;77.64;100722.97;5026984;28;20125;-68
2023/08/16 09:14:14;;;;;;;9.55;1.10;;;;;;;18.54;77.52;100727.28;5027199;28;20037;-69
2023/08/16 09:16:39;;;;;;;2.65;0.80;;;;;;;18.72;77.09;100724.88;5026894;28;20632;-68
2023/08/16 09:19:14;;;;;;;13.55;1.27;;;;;;;18.92;75.69;100720.63;5027209;28;20025;-68
2023/08/16 09:21:43;;;;;;;1.77;0.57;;;;;;;18.89;75.12;100711.09;5025983;28;20037;-69
2023/08/16 09:24:09;;;;;;;4.13;0.80;;;;;;;18.78;75.21;100740.44;5027082;28;20032;-70
2023/08/16 09:26:37;;;;;;;1.50;0.70;;;;;;;18.54;75.63;100736.94;5027027;28;20064;-69
2023/08/16 09:29:03;;;;;;;3.38;0.80;;;;;;;18.25;76.92;100733.59;5026786;28;20030;-70
2023/08/16 09:31:30;;;;;;;1.00;0.70;;;;;;;18.17;78.19;100741.75;5026612;28;20028;-69
2023/08/16 09:33:56;;;;;;;3.08;1.00;;;;;;;18.20;78.92;100742.50;5025692;28;20025;-69
2023/08/16 09:36:21;;;;;;;13.60;1.45;;;;;;;18.34;78.49;100738.50;5026948;28;20053;-69
2023/08/16 09:38:48;;;;;;;8.77;1.08;;;;;;;18.44;77.81;100737.28;5025289;28;20528;-68
2023/08/16 09:41:16;;;;;;;5.05;0.95;;;;;;;18.47;76.88;100741.56;5025223;28;20030;-68
2023/08/16 09:43:42;;;;;;;0.85;0.77;;;;;;;18.51;76.81;100753.69;5026375;28;20056;-69
2023/08/16 09:46:07;;;;;;;1.10;0.65;;;;;;;18.65;76.61;100736.53;5026768;28;20046;-68
2023/08/16 09:48:33;;;;;;;5.07;0.80;;;;;;;18.92;75.08;100742.53;5026302;28;20430;-68
2023/08/16 09:51:03;;;;;;;1.60;1.35;;;;;;;19.11;74.07;100743.59;5026436;28;20086;-68
2023/08/16 09:53:30;;;;;;;1.83;0.90;;;;;;;19.21;73.86;100750.25;5041573;28;20022;-69
2023/08/16 09:55:59;;;;;;;2.25;0.85;;;;;;;19.32;73.46;100755.06;5026282;28;20022;-68
2023/08/16 09:58:27;;;;;;;1.27;0.90;;;;;;;19.50;72.75;100760.53;5041543;28;20425;-67
2023/08/16 10:00:55;;;;;;;2.15;1.30;;;;;;;19.41;71.90;100759.13;5026428;28;20034;-68
2023/08/16 10:03:21;;;;;;;6.38;1.05;;;;;;;19.12;72.50;100751.44;5026179;28;20022;-68
2023/08/16 10:05:47;;;;;;;1.75;0.73;;;;;;;18.92;73.38;100773.22;5026177;28;20041;-68
2023/08/16 10:08:13;;;;;;;2.30;0.98;;;;;;;18.85;74.16;100761.25;5025977;28;20025;-69
2023/08/16 10:10:39;;;;;;;4.55;1.08;;;;;;;18.69;74.26;100769.72;5026197;28;20029;-69
2023/08/16 10:13:07;;;;;;;1.30;0.45;;;;;;;18.53;75.46;100772.88;5026040;28;20049;-69
2023/08/16 10:15:33;;;;;;;1.80;0.65;;;;;;;18.40;75.67;100774.25;5041172;28;20026;-68
2023/08/16 10:18:09;;;;;;;3.83;0.93;;;;;;;18.31;76.52;100772.78;5025662;28;20033;-69
2023/08/16 10:20:36;;;;;;;3.72;0.68;;;;;;;18.24;77.08;100776.53;5025829;28;20533;-68
2023/08/16 10:23:03;;;;;;;1.65;1.00;;;;;;;18.18;77.62;100772.34;5025907;28;20034;-70
2023/08/16 10:25:41;;;;;;;1.35;0.73;;;;;;;18.16;78.25;100777.66;5041128;28;20437;-70
2023/08/16 10:28:07;;;;;;;2.83;0.88;;;;;;;18.28;77.96;100763.25;5025673;28;20014;-67
2023/08/16 10:30:35;;;;;;;3.78;1.63;;;;;;;18.64;77.60;100776.91;5025939;28;20109;-67
2023/08/16 10:33:07;;;;;;;2.08;0.77;;;;;;;18.81;75.89;100776.28;5025100;28;20018;-67
2023/08/16 10:35:34;;;;;;;4.25;0.82;;;;;;;18.87;75.56;100789.19;5025760;28;20036;-66
2023/08/16 10:38:00;;;;;;;1.65;0.90;;;;;;;18.75;75.09;100779.13;5040541;28;20066;-67
2023/08/16 10:40:26;;;;;;;4.20;0.98;;;;;;;18.61;75.08;100783.09;5025453;28;20080;-68
2023/08/16 10:42:59;;;;;;;4.90;0.95;;;;;;;18.48;75.63;100795.88;5025467;28;20270;-69
2023/08/16 10:45:29;;;;;;;3.55;0.63;;;;;;;18.27;76.84;100795.69;5025628;28;20046;-69
2023/08/16 10:47:55;;;;;;;1.00;0.70;;;;;;;18.07;77.57;100791.06;5025011;28;20037;-68
2023/08/16 10:50:31;;;;;;;3.72;1.10;;;;;;;17.91;78.89;100790.72;5024165;28;20390;-69
2023/08/16 10:52:59;;;;;;;0.93;0.65;;;;;;;17.82;79.01;100794.53;5025345;28;20470;-69
2023/08/16 10:55:25;;;;;;;2.38;1.20;;;;;;;17.73;80.58;100800.94;5040674;28;20030;-69
2023/08/16 10:57:54;;;;;;;6.95;1.40;;;;;;;17.76;82.00;100806.09;5025186;28;20536;-69
2023/08/16 11:00:32;;;;;;;0.73;0.57;;;;;;;17.89;81.61;100798.66;5025188;28;20026;-70
2023/08/16 11:02:58;;;;;;;2.88;1.05;;;;;;;17.97;80.95;100806.31;5025087;28;20029;-69
2023/08/16 11:05:24;;;;;;;2.47;0.75;;;;;;;18.19;80.77;100808.25;5025215;28;20033;-69
2023/08/16 11:07:50;;;;;;;2.83;0.77;;;;;;;18.42;80.35;100814.44;5025003;28;20074;-69
2023/08/16 11:10:15;;;;;;;0.52;0.50;;;;;;;18.48;79.51;100818.66;5023663;28;20029;-70
2023/08/16 11:12:41;;;;;;;2.40;0.85;;;;;;;18.53;79.49;100820.19;5024998;28;20029;-68
2023/08/16 11:15:08;;;;;;;2.00;0.88;;;;;;;18.57;79.39;100829.72;5025096;28;20085;-69
2023/08/16 11:17:34;;;;;;;11.00;1.33;;;;;;;18.63;78.59;100825.13;5024735;28;20022;-69
2023/08/16 11:20:05;;;;;;;4.53;0.75;;;;;;;18.46;78.27;100826.59;5024734;28;20029;-69